Time;durP1;ratioP1;P1;durP2;ratioP2;P2;SDS_P1;SDS_P2;PMS_P1;PMS_P2;Temp;Humidity;BMP_temperature;BMP_pressure;BME280_temperature;BME280_humidity;BME280_pressure;Samples;Min_cycle;Max_cycle;Signal;HPM_P1;HPM_P2
2022/01/15 00:02:01;;;;;;;19.40;14.10;;;7.40;96.50;;;;;;4949728;28;20105;-87
2022/01/15 00:04:29;;;;;;;16.60;12.20;;;7.40;96.50;;;;;;4952651;28;20058;-90
2022/01/15 00:06:58;;;;;;;17.00;11.88;;;7.40;96.50;;;;;;4932129;28;20050;-89
2022/01/15 00:09:26;;;;;;;20.55;12.68;;;7.30;96.50;;;;;;4932602;28;20073;-89
2022/01/15 00:11:58;;;;;;;18.85;12.43;;;7.40;96.50;;;;;;4948683;28;20046;-90
2022/01/15 00:14:34;;;;;;;19.73;13.03;;;7.40;96.50;;;;;;4931395;28;20106;-81
2022/01/15 00:17:16;;;;;;;20.63;13.10;;;7.40;96.50;;;;;;4934745;28;20081;-91
2022/01/15 00:19:43;;;;;;;18.42;12.90;;;7.30;96.50;;;;;;4935013;28;20055;-90
2022/01/15 00:22:14;;;;;;;20.23;12.55;;;7.30;96.50;;;;;;4948781;28;20535;-92
2022/01/15 00:24:40;;;;;;;20.48;13.48;;;7.30;96.50;;;;;;4936034;28;20051;-90
2022/01/15 00:27:05;;;;;;;15.23;11.40;;;7.30;96.50;;;;;;4968389;28;20051;-91
2022/01/15 00:29:32;;;;;;;16.60;11.57;;;7.40;96.60;;;;;;4953246;28;20082;-92
2022/01/15 00:31:59;;;;;;;20.17;12.50;;;7.30;96.60;;;;;;4952597;28;20038;-83
2022/01/15 00:34:27;;;;;;;19.67;13.18;;;7.30;96.60;;;;;;4953264;28;20111;-93
2022/01/15 00:37:00;;;;;;;19.30;11.63;;;7.30;96.60;;;;;;4921029;28;20055;-92
2022/01/15 00:39:30;;;;;;;19.92;12.60;;;7.30;96.60;;;;;;4953495;28;20070;-90
2022/01/15 00:42:06;;;;;;;18.10;12.02;;;7.30;96.60;;;;;;4953041;28;20050;-92
2022/01/15 00:44:32;;;;;;;19.20;12.55;;;7.30;96.60;;;;;;4984858;28;20047;-86
2022/01/15 00:46:58;;;;;;;16.90;11.38;;;7.30;96.60;;;;;;4968446;28;20053;-84
2022/01/15 00:49:28;;;;;;;16.98;11.15;;;7.30;96.60;;;;;;4968408;28;20546;-93
2022/01/15 00:51:54;;;;;;;17.73;11.48;;;7.30;96.60;;;;;;4953034;28;20054;-92
2022/01/15 00:54:23;;;;;;;18.02;10.98;;;7.30;96.60;;;;;;4969709;28;20073;-92
2022/01/15 00:56:49;;;;;;;18.13;11.18;;;7.30;96.70;;;;;;4955441;28;20043;-94
2022/01/15 00:59:18;;;;;;;18.85;11.88;;;7.30;96.60;;;;;;4951624;28;20047;-92
2022/01/15 01:01:44;;;;;;;19.40;12.57;;;7.30;96.60;;;;;;4936500;28;20047;-90
2022/01/15 01:04:10;;;;;;;18.38;11.43;;;7.30;96.60;;;;;;4951642;28;20054;-91
2022/01/15 01:06:38;;;;;;;17.85;12.45;;;7.30;96.60;;;;;;4951957;28;20054;-91
2022/01/15 01:09:04;;;;;;;17.55;10.15;;;7.30;96.60;;;;;;4951861;28;20103;-88
2022/01/15 01:11:43;;;;;;;17.67;11.40;;;7.30;96.60;;;;;;4967513;28;20054;-91
2022/01/15 01:22:53;;;;;;;20.15;11.88;;;7.30;96.70;;;;;;4955514;28;20050;-89
2022/01/15 01:24:54;;;;;;;17.25;11.57;;;7.30;96.60;;;;;;4953414;28;20102;-90
2022/01/15 01:27:41;;;;;;;19.50;11.98;;;7.30;96.60;;;;;;4984700;28;20047;-90
2022/01/15 01:30:13;;;;;;;18.83;11.52;;;7.30;96.60;;;;;;4954438;28;20486;-85
2022/01/15 01:35:28;;;;;;;17.05;11.77;;;7.30;96.60;;;;;;4952895;28;20075;-90
2022/01/15 01:37:55;;;;;;;16.70;11.25;;;7.30;96.60;;;;;;4941225;28;20113;-90
2022/01/15 01:40:37;;;;;;;16.95;10.90;;;7.30;96.70;;;;;;4937072;28;20046;-91
2022/01/15 01:46:09;;;;;;;19.58;10.98;;;7.30;96.70;;;;;;4938787;28;20043;-91
2022/01/15 01:48:34;;;;;;;17.58;11.05;;;7.30;96.60;;;;;;4968888;28;20554;-91
2022/01/15 01:51:00;;;;;;;18.80;12.18;;;7.30;96.60;;;;;;4951562;28;20035;-90
2022/01/15 01:53:26;;;;;;;18.45;11.38;;;7.30;96.60;;;;;;4968007;28;20046;-90
2022/01/15 01:55:54;;;;;;;20.10;12.65;;;7.30;96.70;;;;;;4968231;28;20051;-91
2022/01/15 01:58:20;;;;;;;17.88;11.82;;;7.30;96.70;;;;;;4936716;28;20062;-90
2022/01/15 02:00:45;;;;;;;19.05;12.35;;;7.30;96.70;;;;;;4984788;28;20483;-90
2022/01/15 02:03:11;;;;;;;19.13;11.55;;;7.30;96.70;;;;;;4951921;28;20049;-85
2022/01/15 02:05:46;;;;;;;18.90;11.75;;;7.20;96.70;;;;;;4951891;28;20050;-90
2022/01/15 02:08:12;;;;;;;18.05;11.05;;;7.30;96.70;;;;;;4937956;28;20117;-85
2022/01/15 02:10:41;;;;;;;20.33;12.93;;;7.30;96.70;;;;;;4935688;28;20042;-90
2022/01/15 02:13:10;;;;;;;20.73;13.15;;;7.30;96.70;;;;;;4919471;28;20053;-86
2022/01/15 02:15:38;;;;;;;18.65;11.85;;;7.30;96.70;;;;;;4935731;28;20051;-90
2022/01/15 02:18:04;;;;;;;19.45;11.30;;;7.30;96.70;;;;;;4967786;28;20054;-89
2022/01/15 02:21:00;;;;;;;19.85;11.20;;;7.20;96.70;;;;;;4935671;28;20509;-89
2022/01/15 02:23:34;;;;;;;17.40;10.30;;;7.30;96.70;;;;;;4940432;28;20097;-91
2022/01/15 02:26:03;;;;;;;17.15;10.48;;;7.30;96.70;;;;;;4953241;28;20053;-91
2022/01/15 02:28:32;;;;;;;15.93;9.52;;;7.20;96.60;;;;;;4935518;28;20039;-92
2022/01/15 02:31:22;;;;;;;14.82;10.10;;;7.30;96.60;;;;;;4951215;28;20480;-91
2022/01/15 02:33:52;;;;;;;15.02;9.88;;;7.20;96.60;;;;;;4935868;28;20058;-92
2022/01/15 02:36:28;;;;;;;16.83;10.13;;;7.20;96.60;;;;;;4966599;28;20046;-84
2022/01/15 02:38:56;;;;;;;16.95;9.73;;;7.20;96.60;;;;;;4966684;28;20047;-90
2022/01/15 02:41:29;;;;;;;16.70;9.07;;;7.20;96.60;;;;;;4934231;28;20087;-92
2022/01/15 02:43:56;;;;;;;14.20;8.32;;;7.20;96.60;;;;;;4935072;28;20059;-92
2022/01/15 02:48:56;;;;;;;15.75;9.75;;;7.20;96.60;;;;;;4965536;28;20073;-90
2022/01/15 02:51:23;;;;;;;15.77;9.57;;;7.20;96.60;;;;;;4933637;28;20130;-90
2022/01/15 02:53:57;;;;;;;17.95;9.75;;;7.20;96.60;;;;;;4949781;28;20097;-90
2022/01/15 02:56:24;;;;;;;15.38;9.60;;;7.20;96.60;;;;;;4934582;28;20058;-89
2022/01/15 02:58:50;;;;;;;17.42;11.30;;;7.20;96.60;;;;;;4965336;28;20090;-91
2022/01/15 03:01:16;;;;;;;16.35;10.23;;;7.20;96.60;;;;;;4949503;28;20054;-91
2022/01/15 03:03:41;;;;;;;15.77;9.55;;;7.20;96.60;;;;;;4950060;28;20109;-90
2022/01/15 03:06:22;;;;;;;16.23;10.07;;;7.20;96.60;;;;;;4965827;28;20046;-90
2022/01/15 03:08:49;;;;;;;15.82;10.57;;;7.20;96.60;;;;;;4920634;28;20082;-91
2022/01/15 03:11:15;;;;;;;17.50;10.90;;;7.20;96.60;;;;;;4949542;28;20102;-92
2022/01/15 03:13:41;;;;;;;15.98;10.20;;;7.20;96.60;;;;;;4949782;28;20176;-92
2022/01/15 03:16:07;;;;;;;14.38;8.90;;;7.10;96.60;;;;;;4965329;28;20121;-91
2022/01/15 03:18:33;;;;;;;14.70;8.57;;;7.20;96.70;;;;;;4949559;28;20050;-89
2022/01/15 03:20:59;;;;;;;14.57;8.93;;;7.20;96.60;;;;;;4949920;28;20046;-91
2022/01/15 03:23:24;;;;;;;14.13;8.38;;;7.20;96.60;;;;;;4949847;28;20046;-84
2022/01/15 03:25:50;;;;;;;13.27;8.07;;;7.20;96.60;;;;;;4982663;28;20047;-93
2022/01/15 03:28:16;;;;;;;12.90;7.75;;;7.20;96.60;;;;;;4949609;28;20138;-91
2022/01/15 03:30:41;;;;;;;11.07;7.28;;;7.20;96.60;;;;;;4918655;28;20078;-91
2022/01/15 03:33:07;;;;;;;11.95;7.35;;;7.10;96.60;;;;;;4934927;28;20050;-90
2022/01/15 03:35:34;;;;;;;11.18;6.93;;;7.20;96.60;;;;;;4934406;28;20081;-91
2022/01/15 03:37:59;;;;;;;11.68;6.45;;;7.20;96.60;;;;;;4934741;28;20051;-92
2022/01/15 03:40:25;;;;;;;11.73;7.20;;;7.20;96.60;;;;;;4966719;28;20058;-86
2022/01/15 03:42:51;;;;;;;12.27;6.88;;;7.20;96.60;;;;;;4934355;28;20046;-89
2022/01/15 03:45:16;;;;;;;8.93;6.38;;;7.10;96.60;;;;;;4918799;28;20505;-90
2022/01/15 03:47:43;;;;;;;8.70;5.05;;;7.20;96.60;;;;;;4950009;28;20050;-90
2022/01/15 03:50:09;;;;;;;8.15;4.80;;;7.20;96.60;;;;;;4965954;28;20384;-90
2022/01/15 03:52:37;;;;;;;8.38;5.78;;;7.20;96.60;;;;;;4949955;28;20058;-90
2022/01/15 03:55:04;;;;;;;8.10;5.40;;;7.10;96.50;;;;;;4950831;28;20061;-88
2022/01/15 03:57:30;;;;;;;9.38;5.45;;;7.10;96.50;;;;;;4934454;28;20042;-84
2022/01/15 03:59:55;;;;;;;10.13;5.65;;;7.10;96.60;;;;;;4949745;28;20133;-90
2022/01/15 04:02:21;;;;;;;10.25;5.90;;;7.10;96.50;;;;;;4965535;28;20050;-90
2022/01/15 04:04:47;;;;;;;8.93;5.20;;;7.10;96.50;;;;;;4949858;28;20043;-91
2022/01/15 04:07:12;;;;;;;9.93;5.57;;;7.10;96.50;;;;;;4933969;28;20069;-90
2022/01/15 04:09:38;;;;;;;7.90;5.03;;;7.10;96.50;;;;;;4934101;28;20054;-91
2022/01/15 04:12:04;;;;;;;7.10;4.53;;;7.10;96.50;;;;;;4965230;28;20047;-90
2022/01/15 04:14:29;;;;;;;8.05;5.13;;;7.10;96.50;;;;;;4964810;28;20039;-91
2022/01/15 04:16:55;;;;;;;9.63;5.30;;;7.10;96.50;;;;;;4947801;28;20138;-90
2022/01/15 04:19:21;;;;;;;10.00;5.55;;;7.10;96.50;;;;;;4948743;28;20047;-91
2022/01/15 04:21:47;;;;;;;9.20;4.97;;;7.10;96.50;;;;;;4981169;28;20151;-90
2022/01/15 04:24:12;;;;;;;9.27;5.60;;;7.10;96.50;;;;;;4916789;28;20142;-89
2022/01/15 04:26:38;;;;;;;8.57;5.60;;;7.10;96.50;;;;;;4932371;28;20046;-91
2022/01/15 04:29:04;;;;;;;11.25;5.38;;;7.10;96.60;;;;;;4948706;28;20043;-90
2022/01/15 04:31:46;;;;;;;8.90;5.25;;;7.10;96.60;;;;;;4933575;28;20042;-89
2022/01/15 04:34:13;;;;;;;9.25;5.22;;;7.10;96.60;;;;;;4937280;28;20082;-89
2022/01/15 04:36:38;;;;;;;9.55;5.82;;;7.00;96.50;;;;;;4949241;28;20039;-89
2022/01/15 04:39:04;;;;;;;6.78;3.97;;;7.10;96.60;;;;;;4965011;28;20498;-89
2022/01/15 04:41:29;;;;;;;7.65;4.28;;;7.00;96.60;;;;;;4948848;28;20134;-91
2022/01/15 04:43:55;;;;;;;6.65;4.15;;;7.00;96.50;;;;;;4932294;28;20055;-90
2022/01/15 04:46:21;;;;;;;6.72;3.50;;;7.00;96.50;;;;;;4948091;28;20043;-89
2022/01/15 04:48:47;;;;;;;7.07;3.95;;;7.00;96.50;;;;;;4932223;28;20050;-90
2022/01/15 04:51:13;;;;;;;6.63;3.60;;;7.10;96.50;;;;;;4933310;28;20101;-89
2022/01/15 04:53:38;;;;;;;6.70;3.83;;;7.00;96.50;;;;;;4947790;28;20057;-88
2022/01/15 04:56:04;;;;;;;6.22;3.75;;;7.00;96.40;;;;;;4981191;28;20050;-88
2022/01/15 04:58:30;;;;;;;7.40;4.40;;;7.00;96.50;;;;;;4916700;28;20043;-90
2022/01/15 05:00:55;;;;;;;6.15;3.75;;;7.00;96.40;;;;;;4964083;28;20130;-90
2022/01/15 05:03:21;;;;;;;4.82;3.15;;;7.00;96.50;;;;;;4949057;28;20075;-92
2022/01/15 05:05:47;;;;;;;6.07;3.58;;;7.00;96.40;;;;;;4948989;28;20078;-90
2022/01/15 05:08:13;;;;;;;6.35;3.50;;;7.00;96.40;;;;;;4982329;28;20431;-90
2022/01/15 05:10:45;;;;;;;5.15;3.15;;;7.00;96.40;;;;;;4965791;28;20507;-91
2022/01/15 05:13:14;;;;;;;;;;;7.00;96.40;;;;;;4952747;28;20154;-90
2022/01/15 05:15:42;;;;;;;8.48;3.75;;;7.00;96.30;;;;;;4952549;28;19922;-84
2022/01/15 05:18:08;;;;;;;6.13;3.97;;;7.00;96.40;;;;;;4937220;28;20097;-87
2022/01/15 05:20:34;;;;;;;6.95;4.28;;;6.90;96.40;;;;;;4966238;28;20102;-88
2022/01/15 05:23:00;;;;;;;7.25;4.45;;;7.00;96.40;;;;;;4950611;28;20051;-86
2022/01/15 05:25:25;;;;;;;6.78;3.97;;;7.00;96.40;;;;;;4951370;28;20066;-90
2022/01/15 05:27:51;;;;;;;6.22;4.03;;;7.00;96.40;;;;;;4966604;28;20050;-90
2022/01/15 05:30:17;;;;;;;7.55;4.22;;;7.00;96.40;;;;;;4934753;28;20097;-89
2022/01/15 05:32:43;;;;;;;6.25;4.43;;;6.90;96.40;;;;;;4934694;28;20052;-83
2022/01/15 05:35:09;;;;;;;7.22;4.70;;;7.00;96.40;;;;;;4950817;28;20047;-91
2022/01/15 05:37:35;;;;;;;7.30;4.50;;;6.90;96.40;;;;;;4934850;28;20145;-90
2022/01/15 05:40:01;;;;;;;7.05;4.90;;;6.90;96.40;;;;;;4966536;28;20089;-89
2022/01/15 05:42:26;;;;;;;8.23;5.32;;;6.90;96.30;;;;;;4950284;28;20046;-89
2022/01/15 05:44:52;;;;;;;7.13;4.72;;;7.00;96.70;;;;;;4950864;28;20050;-88
2022/01/15 05:47:18;;;;;;;8.35;5.00;;;6.90;96.30;;;;;;4950795;28;20047;-89
2022/01/15 05:49:43;;;;;;;8.45;5.18;;;6.90;96.30;;;;;;4935549;28;20054;-89
2022/01/15 05:52:09;;;;;;;8.50;5.53;;;7.00;96.30;;;;;;4984040;28;20038;-89
2022/01/15 05:54:35;;;;;;;7.07;4.80;;;6.90;96.30;;;;;;4935295;28;20047;-89
2022/01/15 05:57:00;;;;;;;7.25;4.60;;;7.00;96.30;;;;;;4967709;28;20054;-90
2022/01/15 05:59:26;;;;;;;7.50;4.65;;;6.90;96.30;;;;;;4984912;28;20133;-90
2022/01/15 06:01:52;;;;;;;8.23;4.82;;;6.90;96.30;;;;;;4951304;28;20038;-88
2022/01/15 06:04:17;;;;;;;7.35;4.45;;;6.90;96.30;;;;;;4936941;28;20042;-89
2022/01/15 06:06:43;;;;;;;8.55;5.35;;;6.90;96.30;;;;;;4968617;28;20102;-90
2022/01/15 06:09:09;;;;;;;7.38;4.75;;;6.90;96.30;;;;;;4967794;28;20054;-89
2022/01/15 06:11:35;;;;;;;6.97;4.50;;;6.90;96.30;;;;;;4966444;28;20053;-89
2022/01/15 06:14:00;;;;;;;8.07;5.20;;;6.90;96.30;;;;;;4949720;28;20130;-88
2022/01/15 06:16:26;;;;;;;6.20;4.03;;;6.80;96.30;;;;;;4951503;28;20090;-90
2022/01/15 06:18:52;;;;;;;6.93;4.72;;;6.80;96.30;;;;;;4936265;28;20051;-85
2022/01/15 06:21:18;;;;;;;6.38;4.15;;;6.90;96.30;;;;;;4921031;28;20102;-88
2022/01/15 06:23:43;;;;;;;6.30;3.80;;;6.80;96.30;;;;;;4951861;28;20480;-89
2022/01/15 06:26:09;;;;;;;7.60;4.65;;;6.80;96.30;;;;;;4934695;28;20152;-89
2022/01/15 06:28:35;;;;;;;7.63;4.30;;;6.80;96.30;;;;;;4918243;28;20121;-89
2022/01/15 06:31:00;;;;;;;6.82;4.43;;;6.80;96.30;;;;;;4965916;28;20042;-90
2022/01/15 06:33:26;;;;;;;6.15;4.15;;;6.80;96.30;;;;;;4949814;28;20055;-91
2022/01/15 06:35:52;;;;;;;8.18;4.70;;;6.80;96.30;;;;;;4950388;28;20051;-84
2022/01/15 06:38:18;;;;;;;7.47;4.45;;;6.80;96.30;;;;;;4934227;28;20042;-89
2022/01/15 06:40:43;;;;;;;6.32;4.05;;;6.80;96.30;;;;;;4949426;28;20525;-89
2022/01/15 06:43:10;;;;;;;6.75;4.55;;;6.70;96.20;;;;;;4933495;28;20046;-85
2022/01/15 06:45:35;;;;;;;8.70;4.70;;;6.70;96.20;;;;;;4934104;28;20054;-88
2022/01/15 06:48:01;;;;;;;7.93;4.75;;;6.70;96.30;;;;;;4949425;28;20105;-88
2022/01/15 06:50:29;;;;;;;8.23;4.53;;;6.70;96.20;;;;;;4933819;28;20426;-88
2022/01/15 06:52:55;;;;;;;7.22;4.28;;;6.70;96.30;;;;;;4919000;28;20056;-84
2022/01/15 06:55:21;;;;;;;8.15;5.20;;;6.70;96.20;;;;;;4949900;28;20399;-90
2022/01/15 06:57:47;;;;;;;8.07;4.32;;;6.70;96.20;;;;;;4983389;28;20051;-88
2022/01/15 07:00:13;;;;;;;7.13;4.57;;;6.70;96.30;;;;;;4918334;28;20090;-87
2022/01/15 07:02:39;;;;;;;8.20;5.15;;;6.70;96.20;;;;;;4949819;28;20038;-89
2022/01/15 07:05:05;;;;;;;7.97;4.65;;;6.70;96.20;;;;;;4949889;28;20115;-90
2022/01/15 07:07:31;;;;;;;7.90;4.65;;;6.70;96.20;;;;;;4966266;28;20093;-90
2022/01/15 07:09:57;;;;;;;7.63;4.75;;;6.70;96.20;;;;;;4935019;28;20043;-85
2022/01/15 07:12:22;;;;;;;7.47;4.55;;;6.70;96.20;;;;;;4966741;28;20051;-89
2022/01/15 07:14:48;;;;;;;8.40;4.47;;;6.70;96.20;;;;;;4935230;28;20373;-89
2022/01/15 07:17:14;;;;;;;10.00;5.28;;;6.60;96.20;;;;;;4950793;28;20146;-89
2022/01/15 07:19:39;;;;;;;8.30;4.47;;;6.60;96.20;;;;;;4935657;28;20047;-89
2022/01/15 07:22:06;;;;;;;7.93;5.18;;;6.60;96.20;;;;;;4934218;28;20047;-88
2022/01/15 07:24:31;;;;;;;8.63;5.13;;;6.60;96.20;;;;;;4966195;28;20057;-89
2022/01/15 07:26:57;;;;;;;8.68;5.03;;;6.60;96.20;;;;;;4966116;28;20054;-89
2022/01/15 07:29:25;;;;;;;7.95;4.90;;;6.60;96.30;;;;;;4933725;28;20050;-90
2022/01/15 07:31:52;;;;;;;8.95;5.30;;;6.60;96.20;;;;;;4950370;28;20058;-89
2022/01/15 07:34:19;;;;;;;7.57;4.82;;;6.60;96.20;;;;;;4950355;28;20058;-89
2022/01/15 07:36:44;;;;;;;8.20;4.90;;;6.60;96.20;;;;;;4950899;28;20062;-88
2022/01/15 07:39:10;;;;;;;8.75;5.22;;;6.60;96.20;;;;;;4918770;28;20047;-88
2022/01/15 07:41:36;;;;;;;7.97;4.93;;;6.60;96.20;;;;;;4934975;28;20097;-88
2022/01/15 07:44:02;;;;;;;8.77;5.25;;;6.60;96.20;;;;;;4934274;28;20065;-86
2022/01/15 07:46:28;;;;;;;8.57;5.22;;;6.60;96.20;;;;;;4950672;28;20066;-90
2022/01/15 07:48:53;;;;;;;9.93;6.50;;;6.60;96.20;;;;;;4919225;28;20046;-89
2022/01/15 07:51:22;;;;;;;10.07;6.55;;;6.60;96.20;;;;;;4918952;28;20105;-90
2022/01/15 07:53:47;;;;;;;11.15;6.13;;;6.60;96.20;;;;;;4935182;28;20049;-89
2022/01/15 07:56:13;;;;;;;12.05;8.75;;;6.60;96.20;;;;;;4919141;28;20078;-88
2022/01/15 07:58:39;;;;;;;12.27;7.75;;;6.60;96.20;;;;;;4935475;28;20046;-88
2022/01/15 08:01:05;;;;;;;13.57;8.02;;;6.60;96.20;;;;;;4951032;28;20064;-83
2022/01/15 08:03:32;;;;;;;12.90;8.02;;;6.60;96.20;;;;;;4967169;28;20051;-90
2022/01/15 08:05:57;;;;;;;13.13;8.45;;;6.60;96.20;;;;;;4950848;28;20054;-88
2022/01/15 08:08:23;;;;;;;12.50;7.95;;;6.60;96.20;;;;;;4951066;28;20126;-90
2022/01/15 08:10:49;;;;;;;12.45;7.72;;;6.60;96.20;;;;;;4919502;28;20054;-89
2022/01/15 08:13:14;;;;;;;13.05;8.35;;;6.60;96.50;;;;;;4967107;28;20051;-89
2022/01/15 08:15:40;;;;;;;15.50;8.82;;;6.60;96.20;;;;;;4951342;28;20132;-88
2022/01/15 08:18:06;;;;;;;12.25;7.78;;;6.60;96.10;;;;;;4950352;28;20055;-85
2022/01/15 08:20:31;;;;;;;12.13;8.13;;;6.60;96.10;;;;;;4949087;28;20054;-84
2022/01/15 08:22:57;;;;;;;12.57;8.05;;;6.60;96.10;;;;;;4929943;28;20091;-74
2022/01/15 08:25:24;;;;;;;7.47;4.15;;;6.50;96.10;;;;;;4956976;28;20090;-78
2022/01/15 08:27:49;;;;;;;11.63;7.95;;;6.60;96.20;;;;;;4943552;28;20086;-81
2022/01/15 08:30:16;;;;;;;10.77;7.38;;;6.70;96.50;;;;;;4915701;28;20050;-80
2022/01/15 08:32:42;;;;;;;13.77;7.85;;;6.70;96.10;;;;;;4915179;28;20050;-79
2022/01/15 08:35:08;;;;;;;12.50;7.53;;;6.70;96.00;;;;;;4930509;28;20081;-83
2022/01/15 08:37:35;;;;;;;12.13;8.15;;;6.70;95.90;;;;;;4915831;28;20117;-83
2022/01/15 08:40:00;;;;;;;8.25;4.55;;;6.60;95.90;;;;;;4945753;28;20050;-79
2022/01/15 08:42:26;;;;;;;12.77;7.63;;;6.70;96.00;;;;;;4931576;28;20152;-83
2022/01/15 08:44:55;;;;;;;12.88;8.85;;;7.00;96.70;;;;;;4917299;28;20059;-84
2022/01/15 08:47:25;;;;;;;12.77;9.02;;;7.10;96.30;;;;;;4952990;28;20046;-84
2022/01/15 08:49:53;;;;;;;15.88;11.07;;;7.10;96.00;;;;;;4936543;28;20396;-82
2022/01/15 08:52:20;;;;;;;15.45;10.52;;;7.00;95.80;;;;;;4967990;28;20053;-82
2022/01/15 08:54:48;;;;;;;15.45;10.60;;;7.00;95.80;;;;;;4952376;28;20046;-82
2022/01/15 08:57:26;;;;;;;15.65;10.85;;;7.00;95.80;;;;;;4919657;28;20054;-88
2022/01/15 09:00:11;;;;;;;16.05;10.45;;;6.90;95.80;;;;;;4939727;28;20102;-89
2022/01/15 09:03:26;;;;;;;17.02;11.25;;;6.80;95.80;;;;;;4939850;28;20043;-91
2022/01/15 09:06:03;;;;;;;15.52;11.02;;;6.80;95.80;;;;;;4954236;28;20051;-90
2022/01/15 09:09:09;;;;;;;16.38;10.98;;;6.80;95.90;;;;;;4939613;28;20117;-90
2022/01/15 09:11:40;;;;;;;15.40;10.10;;;6.80;95.80;;;;;;4951725;28;20058;-89
2022/01/15 09:14:12;;;;;;;15.93;10.60;;;6.80;95.90;;;;;;4951053;28;20038;-85
2022/01/15 09:16:47;;;;;;;18.08;11.43;;;6.80;95.80;;;;;;4920831;28;20475;-89
2022/01/15 09:19:40;;;;;;;17.50;11.98;;;6.80;95.80;;;;;;4937710;28;20392;-92
2022/01/15 09:22:11;;;;;;;19.73;11.85;;;6.80;95.70;;;;;;4954151;28;20054;-92
2022/01/15 09:24:37;;;;;;;15.73;10.50;;;6.70;95.70;;;;;;4938321;28;20069;-86
2022/01/15 09:39:22;;;;;;;12.02;8.63;;;6.60;95.60;;;;;;4940643;28;20043;-89
2022/01/15 09:41:53;;;;;;;11.90;8.15;;;6.60;95.60;;;;;;4935559;28;20043;-91
2022/01/15 09:44:40;;;;;;;12.57;8.43;;;6.60;95.50;;;;;;4935041;28;20138;-87
2022/01/15 09:47:09;;;;;;;17.00;8.10;;;6.60;95.40;;;;;;4935844;28;20082;-86
2022/01/15 09:49:35;;;;;;;13.20;8.35;;;6.60;95.50;;;;;;4918708;28;20615;-86
2022/01/15 09:52:44;;;;;;;12.70;8.23;;;6.70;95.70;;;;;;4936318;28;20046;-91
2022/01/15 09:58:00;;;;;;;11.02;7.00;;;6.60;95.30;;;;;;4953782;28;20051;-81
2022/01/15 10:00:36;;;;;;;13.23;8.77;;;6.60;95.40;;;;;;4915850;28;20047;-81
2022/01/15 10:03:02;;;;;;;13.70;8.90;;;6.60;95.30;;;;;;4933640;28;20061;-81
2022/01/15 10:05:28;;;;;;;13.65;9.40;;;6.60;95.40;;;;;;4961839;28;20090;-90
2022/01/15 10:07:59;;;;;;;15.13;9.95;;;6.60;95.40;;;;;;4934649;28;20062;-85
2022/01/15 10:10:31;;;;;;;17.00;12.43;;;6.50;95.40;;;;;;4917499;28;20058;-87
2022/01/15 10:13:17;;;;;;;15.50;10.73;;;6.60;95.40;;;;;;4949393;28;20369;-81
2022/01/15 10:15:48;;;;;;;16.27;11.35;;;6.50;95.30;;;;;;4952450;28;20095;-83
2022/01/15 10:18:28;;;;;;;16.80;12.25;;;6.50;95.40;;;;;;4949039;28;20129;-84
2022/01/15 10:21:14;;;;;;;16.63;11.45;;;6.50;95.30;;;;;;4916950;28;20050;-81
2022/01/15 10:24:01;;;;;;;17.65;11.70;;;6.50;95.40;;;;;;4937035;28;20054;-85
2022/01/15 10:26:34;;;;;;;17.15;12.38;;;6.50;95.40;;;;;;4919478;28;20061;-86
2022/01/15 10:29:07;;;;;;;16.60;11.95;;;6.50;95.40;;;;;;4935570;28;20129;-88
2022/01/15 10:35:00;;;;;;;16.77;11.80;;;6.40;95.30;;;;;;4955172;28;20046;-88
2022/01/15 10:37:46;;;;;;;;;;;;;;;;;;;;;
2022/01/15 10:40:33;;;;;;;;;;;;;;;;;;;;;
2022/01/15 10:43:33;;;;;;;17.35;12.80;;;6.40;95.30;;;;;;4940295;28;20062;-93
2022/01/15 10:46:07;;;;;;;18.40;12.88;;;6.40;95.30;;;;;;4923189;28;20051;-90
2022/01/15 10:48:50;;;;;;;17.30;12.23;;;6.40;95.30;;;;;;4922386;28;20109;-88
2022/01/15 10:51:35;;;;;;;17.55;13.07;;;6.40;95.30;;;;;;4939195;28;20109;-91
2022/01/15 10:54:51;;;;;;;;;;;;;;;;;;;;;
2022/01/15 10:57:30;;;;;;;17.80;12.50;;;6.40;95.30;;;;;;4940409;28;20534;-86
2022/01/15 11:00:17;;;;;;;18.38;12.05;;;6.40;95.40;;;;;;4935903;28;20159;-88
2022/01/15 11:03:08;;;;;;;17.25;11.73;;;6.40;95.30;;;;;;4951103;28;20039;-93
2022/01/15 11:05:47;;;;;;;17.85;12.05;;;6.40;95.20;;;;;;4933597;28;20461;-82
2022/01/15 11:08:25;;;;;;;20.48;13.48;;;6.50;95.30;;;;;;4930260;28;20133;-78
2022/01/15 11:11:04;;;;;;;21.25;14.65;;;6.50;95.30;;;;;;4918451;28;20047;-85
2022/01/15 11:13:33;;;;;;;24.77;15.93;;;6.50;95.30;;;;;;4934849;28;20130;-89
2022/01/15 11:16:05;;;;;;;23.10;15.43;;;6.60;95.30;;;;;;4946239;28;20055;-76
2022/01/15 11:18:41;;;;;;;21.47;15.63;;;6.60;95.30;;;;;;4932677;28;20074;-85
2022/01/15 11:21:09;;;;;;;22.65;15.88;;;6.60;95.30;;;;;;4934901;28;20057;-86
2022/01/15 11:23:43;;;;;;;23.65;16.23;;;6.60;95.30;;;;;;4935504;28;20062;-86
2022/01/15 11:26:14;;;;;;;24.58;16.38;;;6.60;95.30;;;;;;4932623;28;20054;-85
2022/01/15 11:28:53;;;;;;;22.77;14.85;;;6.60;95.20;;;;;;4915500;28;20051;-88
2022/01/15 11:31:32;;;;;;;20.10;14.65;;;6.60;95.20;;;;;;4918880;28;20148;-88
2022/01/15 11:34:08;;;;;;;21.00;15.18;;;6.60;95.20;;;;;;4921372;28;20094;-86
2022/01/15 11:36:51;;;;;;;19.13;13.65;;;6.60;95.20;;;;;;4933002;28;20091;-89
2022/01/15 11:39:32;;;;;;;19.38;13.25;;;6.70;95.20;;;;;;4935499;28;20047;-89
2022/01/15 11:42:02;;;;;;;23.00;14.75;;;6.60;95.10;;;;;;4966420;28;20050;-88
2022/01/15 11:44:35;;;;;;;22.25;14.38;;;6.70;95.10;;;;;;4950346;28;20063;-93
2022/01/15 11:47:33;;;;;;;23.20;16.63;;;6.70;95.10;;;;;;4966356;28;20050;-88
2022/01/15 11:50:08;;;;;;;24.33;15.40;;;6.70;95.10;;;;;;4918943;28;20046;-84
2022/01/15 11:52:34;;;;;;;24.33;15.25;;;6.70;95.10;;;;;;4919723;28;20046;-84
2022/01/15 11:55:02;;;;;;;21.60;14.43;;;6.70;95.10;;;;;;4948905;28;20047;-86
2022/01/15 11:57:32;;;;;;;24.30;15.68;;;6.70;95.00;;;;;;4965705;28;20519;-86
2022/01/15 12:00:13;;;;;;;22.98;15.65;;;6.70;95.00;;;;;;4949489;28;20363;-87
2022/01/15 12:03:07;;;;;;;25.85;16.77;;;6.70;95.00;;;;;;4936754;28;20043;-86
2022/01/15 12:08:34;;;;;;;25.77;16.27;;;6.70;95.00;;;;;;4938756;28;20046;-83
2022/01/15 12:11:06;;;;;;;25.08;17.00;;;6.70;95.00;;;;;;4932349;28;20069;-83
2022/01/15 12:13:44;;;;;;;23.58;16.45;;;6.70;95.00;;;;;;4933026;28;20550;-83
2022/01/15 12:16:26;;;;;;;28.42;17.23;;;6.70;95.00;;;;;;4932904;28;20078;-82
2022/01/15 12:19:02;;;;;;;17.88;10.07;;;6.70;95.00;;;;;;4928098;28;20054;-78
2022/01/15 12:22:02;;;;;;;22.75;13.40;;;7.10;96.20;;;;;;4963032;28;20043;-84
2022/01/15 12:24:42;;;;;;;26.23;15.93;;;7.60;96.30;;;;;;4920059;28;20078;-87
2022/01/15 12:27:11;;;;;;;26.67;17.23;;;7.60;95.10;;;;;;4937809;28;20042;-85
2022/01/15 12:29:39;;;;;;;26.10;17.70;;;7.60;94.60;;;;;;4936204;28;20058;-84
2022/01/15 12:32:07;;;;;;;24.90;16.63;;;7.50;94.50;;;;;;4934624;28;20058;-80
2022/01/15 12:34:41;;;;;;;27.27;17.27;;;7.40;94.50;;;;;;4936552;28;20110;-85
2022/01/15 12:37:12;;;;;;;27.02;17.80;;;7.30;94.50;;;;;;4950908;28;20389;-81
2022/01/15 12:39:38;;;;;;;28.63;17.55;;;7.20;94.50;;;;;;4951912;28;20070;-81
2022/01/15 12:42:05;;;;;;;27.17;17.48;;;7.20;94.60;;;;;;4935892;28;20043;-81
2022/01/15 12:44:46;;;;;;;27.98;18.30;;;7.20;94.60;;;;;;4968118;28;20064;-81
2022/01/15 12:47:19;;;;;;;25.85;17.85;;;7.10;94.90;;;;;;4936804;28;20090;-82
2022/01/15 12:50:00;;;;;;;27.95;18.50;;;7.10;94.60;;;;;;4922225;28;20059;-82
2022/01/15 12:52:29;;;;;;;27.63;18.05;;;7.10;94.60;;;;;;4920848;28;20057;-82
2022/01/15 12:55:00;;;;;;;26.98;17.67;;;7.10;94.60;;;;;;4935974;28;20047;-84
2022/01/15 12:57:46;;;;;;;29.25;18.08;;;7.00;94.60;;;;;;4921158;28;20119;-83
2022/01/15 13:00:16;;;;;;;18.85;11.07;;;7.00;94.60;;;;;;4935429;28;20065;-90
2022/01/15 13:02:42;;;;;;;24.13;12.32;;;7.40;95.60;;;;;;4934562;28;20062;-86
2022/01/15 13:05:12;;;;;;;30.50;18.83;;;7.80;95.50;;;;;;4919794;28;20042;-87
2022/01/15 13:08:03;;;;;;;28.52;18.08;;;7.90;94.80;;;;;;4935304;28;20082;-87
2022/01/15 13:10:54;;;;;;;28.10;18.27;;;7.80;94.10;;;;;;4940128;28;20059;-84
2022/01/15 13:14:07;;;;;;;26.15;18.35;;;7.70;94.10;;;;;;4968800;28;20049;-87
2022/01/15 13:16:42;;;;;;;25.90;18.45;;;7.60;94.00;;;;;;4940166;28;20078;-84
2022/01/15 13:19:08;;;;;;;27.23;17.75;;;7.40;94.20;;;;;;4939130;28;20055;-83
2022/01/15 13:21:40;;;;;;;26.58;17.35;;;7.40;94.30;;;;;;4919208;28;20042;-81
2022/01/15 13:24:16;;;;;;;28.55;18.58;;;7.30;94.30;;;;;;4920120;28;20058;-84
2022/01/15 13:26:46;;;;;;;28.05;17.10;;;7.20;94.30;;;;;;4952743;28;20522;-82
2022/01/15 13:29:22;;;;;;;29.08;18.35;;;7.20;94.40;;;;;;4935471;28;20086;-84
2022/01/15 13:32:00;;;;;;;;;;;;;;;;;;;;;
2022/01/15 13:34:34;;;;;;;29.63;19.77;;;7.10;94.40;;;;;;4938385;28;20058;-84
2022/01/15 13:37:20;;;;;;;27.80;18.70;;;7.10;94.40;;;;;;4921171;28;20505;-85
2022/01/15 13:39:51;;;;;;;31.92;20.25;;;7.10;94.40;;;;;;4950308;28;20055;-84
2022/01/15 13:42:22;;;;;;;31.42;19.25;;;7.00;94.40;;;;;;4934887;28;20126;-83
2022/01/15 13:44:53;;;;;;;36.65;21.17;;;7.00;94.50;;;;;;4935884;28;20479;-84
2022/01/15 13:47:19;;;;;;;33.80;21.60;;;7.00;94.50;;;;;;4919631;28;20051;-85